Airfield :
LOGIN :

Register | Disclaimer

   EN    FR    IT 

 










Legend :    VFR   Marginal VFR   IFR   Intensive IFR   Very Intensive IFR
Visi :
Ceiling :
>= 8 km
>= 3000ft
5 to 8 km
1000 to 3000 ft
1500m to 5 km
500 to 1000 ft
800 to 1500m
200 to 500 ft
< 800m
< 200 ft
Symbols :   Thunderstorms  Fog  Heavy snow  Heavy precipitations  Wind > 20 kt
SIGMETs :     Misc.  Thunderstorms  Icing  Turbulence  Mountain Waves  Volcanic Ashes







- Airport Elevation : 122 ft
- IATA code : TXL


EDDT - Berlin Tegel Int.

CURRENT METAR :
  • 221250Z 30010KT 270V330 9999 -RADZ BKN011 13/10 Q1013 TEMPO BKN009

EXPIRED METARs :
  • 221220Z 30010KT 270V340 9999 -DZ BKN010 12/10 Q1013 TEMPO BKN009
  • 221150Z 30011G21KT 260V340 9999 -DZ BKN009 12/10 Q1013 BECMG BKN012
  • 221120Z 30011KT 270V330 9999 -DZ BKN009 BKN013 13/11 Q1013 BECMG BKN012
  • 221050Z 30011KT 260V350 9999 -DZ BKN009 BKN014 13/11 Q1013 BECMG BKN012
  • 221020Z 30010KT 250V330 9999 BKN009 BKN014 13/11 Q1012 BECMG BKN012

TAF TAF EDDT
Valid from the 22 at 12:00 until the 23 at 12:00 UTC


221100Z 2212/2312 30012KT 9999 BKN009
BECMG 2212/2215 BKN012
BECMG 2218/2222 30007KT FEW035
No reported NOTAMs for that airfield.



MET'MAP, your aeronautical weather chart ! - Copyright ORBIFLY December 2007 - Disclaimer

ORBIFLY MET'MAP TEAM :

Programming & Development : Alexandra Zaïnal
Concept & Development : Baudouin d'Aumeries
Co-Development & Prog : Marc-Olivier Méhu
Technical & hardware support : Manuel Goepfert

Contact : metmap@orbifly.com




SOURCES & CREDITS :

   NOAA